Time;durP1;ratioP1;P1;durP2;ratioP2;P2;SDS_P1;SDS_P2;PMS_P1;PMS_P2;Temp;Humidity;BMP_temperature;BMP_pressure;BME280_temperature;BME280_humidity;BME280_pressure;Samples;Min_cycle;Max_cycle;Signal;HPM_P1;HPM_P2
2023/09/29 00:01:46;;;;;;;12.90;2.47;;;;;;;;;;4998552;28;20509;-64
2023/09/29 00:04:14;;;;;;;13.02;3.15;;;;;;;;;;4977777;28;20050;-65
2023/09/29 00:06:41;;;;;;;8.68;2.60;;;;;;;;;;4997046;28;20038;-65
2023/09/29 00:09:12;;;;;;;11.98;2.80;;;;;;;;;;4992090;28;20050;-65
2023/09/29 00:11:39;;;;;;;13.43;2.55;;;;;;;;;;4977504;28;20081;-64
2023/09/29 00:14:06;;;;;;;11.10;3.08;;;;;;;;;;4992412;28;20560;-65
2023/09/29 00:16:33;;;;;;;10.77;2.70;;;;;;;;;;4992908;28;20042;-65
2023/09/29 00:19:02;;;;;;;18.73;2.85;;;;;;;;;;4992790;28;20054;-65
2023/09/29 00:21:29;;;;;;;11.52;2.70;;;;;;;;;;4987152;28;20130;-65
2023/09/29 00:23:57;;;;;;;15.70;2.40;;;;;;;;;;4992949;28;20065;-65
2023/09/29 00:26:24;;;;;;;10.85;2.38;;;;;;;;;;4994726;28;20053;-64
2023/09/29 00:28:51;;;;;;;11.65;2.80;;;;;;;;;;4992506;28;20054;-65
2023/09/29 00:31:19;;;;;;;16.30;2.80;;;;;;;;;;4989962;28;20065;-65
2023/09/29 00:33:46;;;;;;;13.05;2.20;;;;;;;;;;4987085;28;20054;-65
2023/09/29 00:36:15;;;;;;;13.98;2.20;;;;;;;;;;4994105;28;20053;-65
2023/09/29 00:38:42;;;;;;;12.63;2.50;;;;;;;;;;4998659;28;20042;-65
2023/09/29 00:41:09;;;;;;;10.52;3.22;;;;;;;;;;4988436;28;20073;-65
2023/09/29 00:43:36;;;;;;;15.38;2.40;;;;;;;;;;4993272;28;20537;-65
2023/09/29 00:46:08;;;;;;;12.60;3.17;;;;;;;;;;4994029;28;20134;-65
2023/09/29 00:48:35;;;;;;;13.43;2.60;;;;;;;;;;4985183;28;20049;-65
2023/09/29 00:51:03;;;;;;;12.73;2.67;;;;;;;;;;4991363;28;20513;-65
2023/09/29 00:53:33;;;;;;;10.65;2.42;;;;;;;;;;4997810;28;20050;-65
2023/09/29 00:56:02;;;;;;;11.13;2.60;;;;;;;;;;4993650;28;20046;-65
2023/09/29 00:58:29;;;;;;;10.10;2.30;;;;;;;;;;4993454;28;20058;-65
2023/09/29 01:00:57;;;;;;;13.52;2.42;;;;;;;;;;4991313;28;20449;-65
2023/09/29 01:03:25;;;;;;;10.10;2.22;;;;;;;;;;4996371;28;20062;-65
2023/09/29 01:05:53;;;;;;;9.23;2.40;;;;;;;;;;4996803;28;20138;-65
2023/09/29 01:08:21;;;;;;;15.05;2.80;;;;;;;;;;4994716;28;20366;-66
2023/09/29 01:10:50;;;;;;;14.73;2.40;;;;;;;;;;4999323;28;20058;-65
2023/09/29 01:13:17;;;;;;;13.52;2.47;;;;;;;;;;4999160;28;20125;-65
2023/09/29 01:15:45;;;;;;;15.50;2.47;;;;;;;;;;4995941;28;20054;-65
2023/09/29 01:18:12;;;;;;;9.38;2.55;;;;;;;;;;4973487;28;20081;-64
2023/09/29 01:20:40;;;;;;;8.82;2.45;;;;;;;;;;4995051;28;20503;-65
2023/09/29 01:23:07;;;;;;;11.85;2.55;;;;;;;;;;4995598;28;20461;-65
2023/09/29 01:25:36;;;;;;;11.73;2.75;;;;;;;;;;5001873;28;20509;-65
2023/09/29 01:28:05;;;;;;;11.07;2.50;;;;;;;;;;4993206;28;20516;-65
2023/09/29 01:30:33;;;;;;;11.82;2.08;;;;;;;;;;4992068;28;20085;-65
2023/09/29 01:33:00;;;;;;;12.30;2.78;;;;;;;;;;4991807;28;20390;-65
2023/09/29 01:35:28;;;;;;;6.53;2.28;;;;;;;;;;4990656;28;20046;-65
2023/09/29 01:37:56;;;;;;;10.65;2.30;;;;;;;;;;4996274;28;20504;-66
2023/09/29 01:40:23;;;;;;;13.85;2.40;;;;;;;;;;4999991;28;20053;-65
2023/09/29 01:42:53;;;;;;;9.65;2.17;;;;;;;;;;4993883;28;20062;-65
2023/09/29 01:45:21;;;;;;;10.85;2.10;;;;;;;;;;4985314;28;20089;-65
2023/09/29 01:47:49;;;;;;;13.02;1.98;;;;;;;;;;4992204;28;20046;-65
2023/09/29 01:50:17;;;;;;;10.60;2.35;;;;;;;;;;4994599;28;20042;-65
2023/09/29 01:52:44;;;;;;;9.38;1.88;;;;;;;;;;4993489;28;20054;-65
2023/09/29 01:55:14;;;;;;;10.95;1.98;;;;;;;;;;4993746;28;20050;-65
2023/09/29 01:57:42;;;;;;;15.02;2.55;;;;;;;;;;5001171;28;20146;-65
2023/09/29 02:00:14;;;;;;;10.15;2.17;;;;;;;;;;4995296;28;20054;-65
2023/09/29 02:02:43;;;;;;;10.77;2.13;;;;;;;;;;4973902;28;20094;-65
2023/09/29 02:05:11;;;;;;;10.25;2.30;;;;;;;;;;4990330;28;20188;-65
2023/09/29 02:07:39;;;;;;;9.98;2.38;;;;;;;;;;4994564;28;20074;-65
2023/09/29 02:10:08;;;;;;;9.68;1.90;;;;;;;;;;4991400;28;20046;-65
2023/09/29 02:12:35;;;;;;;13.80;2.55;;;;;;;;;;4992726;28;20050;-65
2023/09/29 02:15:06;;;;;;;12.98;2.20;;;;;;;;;;4990531;28;20436;-65
2023/09/29 02:17:36;;;;;;;11.98;2.65;;;;;;;;;;4990474;28;20413;-65
2023/09/29 02:20:17;;;;;;;15.02;2.45;;;;;;;;;;4991712;28;20058;-65
2023/09/29 02:22:45;;;;;;;10.80;2.65;;;;;;;;;;4993584;28;20468;-65
2023/09/29 02:25:14;;;;;;;8.18;2.35;;;;;;;;;;4965926;28;20065;-65
2023/09/29 02:27:41;;;;;;;11.75;2.40;;;;;;;;;;4993117;28;20047;-65
2023/09/29 02:30:10;;;;;;;20.75;2.78;;;;;;;;;;5006772;28;20416;-65
2023/09/29 02:32:41;;;;;;;9.25;2.38;;;;;;;;;;5000241;28;20065;-65
2023/09/29 02:35:09;;;;;;;13.20;2.35;;;;;;;;;;5006465;28;20045;-65
2023/09/29 02:37:37;;;;;;;9.52;2.30;;;;;;;;;;5005092;28;20046;-65
2023/09/29 02:40:05;;;;;;;9.32;2.33;;;;;;;;;;4982010;28;20109;-65
2023/09/29 02:42:33;;;;;;;13.52;2.58;;;;;;;;;;4996548;28;20482;-65
2023/09/29 02:45:00;;;;;;;15.02;2.58;;;;;;;;;;4994416;28;20414;-65
2023/09/29 02:47:27;;;;;;;13.82;2.78;;;;;;;;;;4975758;28;20042;-65
2023/09/29 02:49:58;;;;;;;7.93;2.60;;;;;;;;;;4996625;28;20537;-65
2023/09/29 02:52:25;;;;;;;12.32;2.20;;;;;;;;;;4995942;28;20409;-65
2023/09/29 02:54:54;;;;;;;9.15;2.10;;;;;;;;;;4989686;28;20067;-64
2023/09/29 02:57:22;;;;;;;18.10;2.58;;;;;;;;;;4997083;28;20077;-65
2023/09/29 02:59:49;;;;;;;14.85;2.30;;;;;;;;;;5002058;28;20738;-65
2023/09/29 03:02:16;;;;;;;11.15;2.33;;;;;;;;;;4997044;28;20485;-65
2023/09/29 03:04:46;;;;;;;14.55;2.33;;;;;;;;;;5000060;28;20145;-65
2023/09/29 03:07:15;;;;;;;11.77;2.38;;;;;;;;;;5006297;28;20509;-65
2023/09/29 03:09:43;;;;;;;7.95;2.20;;;;;;;;;;5002282;28;20567;-65
2023/09/29 03:12:11;;;;;;;6.35;1.80;;;;;;;;;;4993719;28;20425;-65
2023/09/29 03:14:38;;;;;;;11.02;2.58;;;;;;;;;;4995550;28;20046;-64
2023/09/29 03:17:05;;;;;;;12.73;2.08;;;;;;;;;;5000267;28;20453;-65
2023/09/29 03:19:32;;;;;;;9.57;2.38;;;;;;;;;;5001345;28;20053;-64
2023/09/29 03:22:00;;;;;;;14.80;2.33;;;;;;;;;;4992070;28;20512;-65
2023/09/29 03:24:29;;;;;;;10.43;1.88;;;;;;;;;;4994726;28;20046;-65
2023/09/29 03:26:56;;;;;;;11.65;2.03;;;;;;;;;;4998447;28;20052;-65
2023/09/29 03:29:23;;;;;;;6.47;1.83;;;;;;;;;;4997399;28;20084;-65
2023/09/29 03:31:53;;;;;;;16.75;2.20;;;;;;;;;;4995772;28;20112;-65
2023/09/29 03:34:20;;;;;;;16.83;2.60;;;;;;;;;;4992003;28;20382;-65
2023/09/29 03:36:50;;;;;;;10.05;1.95;;;;;;;;;;4993275;28;20058;-65
2023/09/29 03:39:18;;;;;;;10.15;2.17;;;;;;;;;;4998943;28;20048;-65
2023/09/29 03:41:47;;;;;;;7.03;1.63;;;;;;;;;;4996630;28;20528;-65
2023/09/29 03:44:14;;;;;;;9.50;1.90;;;;;;;;;;4974828;28;20053;-65
2023/09/29 03:46:41;;;;;;;12.80;2.03;;;;;;;;;;4995743;28;20064;-65
2023/09/29 03:49:10;;;;;;;12.20;1.83;;;;;;;;;;4993133;28;20039;-65
2023/09/29 03:51:38;;;;;;;20.42;2.33;;;;;;;;;;4988531;28;20051;-65
2023/09/29 03:54:07;;;;;;;12.45;2.05;;;;;;;;;;4993194;28;20121;-65
2023/09/29 03:56:34;;;;;;;9.00;2.00;;;;;;;;;;4993080;28;20054;-65
2023/09/29 03:59:03;;;;;;;14.00;2.00;;;;;;;;;;4992670;28;20081;-65
2023/09/29 04:01:30;;;;;;;9.15;2.20;;;;;;;;;;4993963;28;20058;-65
2023/09/29 04:03:57;;;;;;;8.35;1.85;;;;;;;;;;5002403;28;20045;-65
2023/09/29 04:06:25;;;;;;;9.65;1.90;;;;;;;;;;4994593;28;20057;-65
2023/09/29 04:08:54;;;;;;;7.35;1.85;;;;;;;;;;4999837;28;20058;-65
2023/09/29 04:11:21;;;;;;;13.30;3.00;;;;;;;;;;4994745;28;20046;-65
2023/09/29 04:13:48;;;;;;;14.07;2.53;;;;;;;;;;4992944;28;20061;-66
2023/09/29 04:16:17;;;;;;;14.05;2.67;;;;;;;;;;4992259;28;20054;-65
2023/09/29 04:18:44;;;;;;;9.30;2.80;;;;;;;;;;4999280;28;20054;-65
2023/09/29 04:21:13;;;;;;;11.63;2.25;;;;;;;;;;4997933;28;20050;-64
2023/09/29 04:23:40;;;;;;;12.63;2.30;;;;;;;;;;4998529;28;20046;-65
2023/09/29 04:26:15;;;;;;;9.60;2.25;;;;;;;;;;4995384;28;20049;-65
2023/09/29 04:28:43;;;;;;;14.15;2.65;;;;;;;;;;4992895;28;20050;-65
2023/09/29 04:31:10;;;;;;;12.85;2.40;;;;;;;;;;4990949;28;20057;-64
2023/09/29 04:33:39;;;;;;;8.80;2.75;;;;;;;;;;4960664;28;20136;-65
2023/09/29 04:36:06;;;;;;;8.55;2.03;;;;;;;;;;4999608;28;20116;-65
2023/09/29 04:38:33;;;;;;;16.45;2.60;;;;;;;;;;4995839;28;20124;-64
2023/09/29 04:41:01;;;;;;;11.70;2.70;;;;;;;;;;4993480;28;20054;-64
2023/09/29 04:43:28;;;;;;;12.05;2.10;;;;;;;;;;4994851;28;20396;-64
2023/09/29 04:45:56;;;;;;;14.55;2.25;;;;;;;;;;4991977;28;20193;-64
2023/09/29 04:48:23;;;;;;;13.23;2.40;;;;;;;;;;4988639;28;20433;-64
2023/09/29 04:50:52;;;;;;;15.45;2.97;;;;;;;;;;4992646;28;20516;-64
2023/09/29 04:53:19;;;;;;;12.98;2.40;;;;;;;;;;4993066;28;20607;-63
2023/09/29 04:55:46;;;;;;;11.68;2.55;;;;;;;;;;4990089;28;20062;-63
2023/09/29 04:58:14;;;;;;;9.85;1.90;;;;;;;;;;4992558;28;20045;-63
2023/09/29 05:00:42;;;;;;;12.45;2.13;;;;;;;;;;5001882;28;20054;-63
2023/09/29 05:03:10;;;;;;;13.68;2.40;;;;;;;;;;4990270;28;20042;-63
2023/09/29 05:05:39;;;;;;;6.78;2.50;;;;;;;;;;4999426;28;20061;-63
2023/09/29 05:08:07;;;;;;;8.60;2.45;;;;;;;;;;4990363;28;20047;-63
2023/09/29 05:10:35;;;;;;;14.82;2.30;;;;;;;;;;4999205;28;20552;-63
2023/09/29 05:13:02;;;;;;;13.20;2.92;;;;;;;;;;4990792;28;20514;-63
2023/09/29 05:15:32;;;;;;;11.48;3.03;;;;;;;;;;4981452;28;20450;-63
2023/09/29 05:17:59;;;;;;;15.20;2.78;;;;;;;;;;4992226;28;20065;-63
2023/09/29 05:20:26;;;;;;;11.07;2.58;;;;;;;;;;5002059;28;20049;-64
2023/09/29 05:22:53;;;;;;;8.93;2.50;;;;;;;;;;4991937;28;20493;-63
2023/09/29 05:25:22;;;;;;;11.43;2.95;;;;;;;;;;4998381;28;20061;-63
2023/09/29 05:27:49;;;;;;;12.80;3.30;;;;;;;;;;4996601;28;20061;-63
2023/09/29 05:30:18;;;;;;;10.35;2.55;;;;;;;;;;4978048;28;20133;-63
2023/09/29 05:32:46;;;;;;;8.05;2.22;;;;;;;;;;4989535;28;20050;-63
2023/09/29 05:35:13;;;;;;;14.70;2.60;;;;;;;;;;4993625;28;20468;-63
2023/09/29 05:37:40;;;;;;;11.63;2.10;;;;;;;;;;4991886;28;20042;-63
2023/09/29 05:40:08;;;;;;;16.20;3.17;;;;;;;;;;4992697;28;20073;-64
2023/09/29 05:42:36;;;;;;;11.23;2.72;;;;;;;;;;4993066;28;20046;-63
2023/09/29 05:45:04;;;;;;;10.50;2.20;;;;;;;;;;4987742;28;20137;-64
2023/09/29 05:47:32;;;;;;;10.15;2.00;;;;;;;;;;4993297;28;20042;-63
2023/09/29 05:49:59;;;;;;;10.38;2.60;;;;;;;;;;4996209;28;20054;-63
2023/09/29 05:52:26;;;;;;;9.90;2.58;;;;;;;;;;5001455;28;20490;-63
2023/09/29 05:54:53;;;;;;;11.73;2.45;;;;;;;;;;4999001;28;20049;-63
2023/09/29 05:57:21;;;;;;;11.02;2.30;;;;;;;;;;4994368;28;20169;-63
2023/09/29 05:59:51;;;;;;;12.10;2.60;;;;;;;;;;4989227;28;20046;-63
2023/09/29 06:02:19;;;;;;;11.32;2.95;;;;;;;;;;4975353;28;20050;-63
2023/09/29 06:04:46;;;;;;;12.25;2.42;;;;;;;;;;4972942;28;20057;-63
2023/09/29 06:07:13;;;;;;;18.00;3.05;;;;;;;;;;4998657;28;20441;-63
2023/09/29 06:09:40;;;;;;;15.68;2.97;;;;;;;;;;5004647;28;20046;-63
2023/09/29 06:12:08;;;;;;;7.57;2.20;;;;;;;;;;4976981;28;20066;-63
2023/09/29 06:14:35;;;;;;;10.55;2.22;;;;;;;;;;4994844;28;20043;-63
2023/09/29 06:17:04;;;;;;;11.93;2.42;;;;;;;;;;4994320;28;20068;-63
2023/09/29 06:19:31;;;;;;;9.65;2.70;;;;;;;;;;4996242;28;20055;-63
2023/09/29 06:21:59;;;;;;;11.63;2.67;;;;;;;;;;5004318;28;20053;-63
2023/09/29 06:24:26;;;;;;;12.32;2.10;;;;;;;;;;5003905;28;20046;-63
2023/09/29 06:26:53;;;;;;;13.32;2.58;;;;;;;;;;4998733;28;20096;-63
2023/09/29 06:29:21;;;;;;;9.43;2.53;;;;;;;;;;5005016;28;20050;-63
2023/09/29 06:31:48;;;;;;;11.10;2.40;;;;;;;;;;4985834;28;20494;-63
2023/09/29 06:34:16;;;;;;;15.35;3.45;;;;;;;;;;5000130;28;20057;-63
2023/09/29 06:36:44;;;;;;;9.85;2.47;;;;;;;;;;4979677;28;20192;-63
2023/09/29 06:39:12;;;;;;;13.75;2.83;;;;;;;;;;5001404;28;20477;-63
2023/09/29 06:41:39;;;;;;;7.78;2.35;;;;;;;;;;4986940;28;20054;-63
2023/09/29 06:44:07;;;;;;;8.35;2.20;;;;;;;;;;4995964;28;20053;-64
2023/09/29 06:46:34;;;;;;;12.00;2.28;;;;;;;;;;4992279;28;20065;-63
2023/09/29 06:49:02;;;;;;;10.30;2.17;;;;;;;;;;4994778;28;20042;-63
2023/09/29 06:51:31;;;;;;;10.68;2.55;;;;;;;;;;4995217;28;20096;-63
2023/09/29 06:53:58;;;;;;;10.82;2.10;;;;;;;;;;4975295;28;20050;-63
2023/09/29 06:56:25;;;;;;;8.57;2.30;;;;;;;;;;4975804;28;20051;-63
2023/09/29 06:58:54;;;;;;;14.82;2.97;;;;;;;;;;4991777;28;20495;-63
2023/09/29 07:01:21;;;;;;;10.05;2.40;;;;;;;;;;5000482;28;20046;-64
2023/09/29 07:03:49;;;;;;;10.85;2.63;;;;;;;;;;4978633;28;20043;-63
2023/09/29 07:06:16;;;;;;;9.27;2.35;;;;;;;;;;4990234;28;20432;-63
2023/09/29 07:08:45;;;;;;;8.77;2.17;;;;;;;;;;4975180;28;20051;-63
2023/09/29 07:11:13;;;;;;;11.25;2.20;;;;;;;;;;4966376;28;20106;-64
2023/09/29 07:13:41;;;;;;;11.60;2.58;;;;;;;;;;4953927;28;20074;-63
2023/09/29 07:16:08;;;;;;;7.30;2.22;;;;;;;;;;4957384;28;20047;-63
2023/09/29 07:18:36;;;;;;;9.23;2.40;;;;;;;;;;4956360;28;20058;-64
2023/09/29 07:21:04;;;;;;;14.85;2.65;;;;;;;;;;4959854;28;20043;-63
2023/09/29 07:23:33;;;;;;;10.43;2.47;;;;;;;;;;4955560;28;20048;-64
2023/09/29 07:26:02;;;;;;;7.43;2.45;;;;;;;;;;4965218;28;20097;-63
2023/09/29 07:28:29;;;;;;;7.88;2.47;;;;;;;;;;4950965;28;20066;-63
2023/09/29 07:30:56;;;;;;;11.95;2.33;;;;;;;;;;4956055;28;20498;-64
2023/09/29 07:33:24;;;;;;;6.75;2.35;;;;;;;;;;4944449;28;20088;-63
2023/09/29 07:35:51;;;;;;;8.88;2.08;;;;;;;;;;4950615;28;20055;-63
2023/09/29 07:38:18;;;;;;;9.45;2.70;;;;;;;;;;4951274;28;20491;-64
2023/09/29 07:40:47;;;;;;;9.50;2.05;;;;;;;;;;4952928;28;20067;-63
2023/09/29 07:43:15;;;;;;;7.55;2.38;;;;;;;;;;4954039;28;20051;-63
2023/09/29 07:45:43;;;;;;;5.20;1.98;;;;;;;;;;4959857;28;20128;-64
2023/09/29 07:48:11;;;;;;;6.90;2.33;;;;;;;;;;4951536;28;20054;-64
2023/09/29 07:50:38;;;;;;;10.02;2.22;;;;;;;;;;4955507;28;20050;-64
2023/09/29 07:53:06;;;;;;;7.47;2.10;;;;;;;;;;4953035;28;20055;-64
2023/09/29 07:55:33;;;;;;;7.80;2.47;;;;;;;;;;4948966;28;20043;-64
2023/09/29 07:58:00;;;;;;;9.93;2.40;;;;;;;;;;4954520;28;20051;-63
2023/09/29 08:00:29;;;;;;;7.95;2.20;;;;;;;;;;4953577;28;20380;-63
2023/09/29 08:02:56;;;;;;;4.35;1.90;;;;;;;;;;4958251;28;20410;-64
2023/09/29 08:05:23;;;;;;;7.38;2.47;;;;;;;;;;4956652;28;20043;-64
2023/09/29 08:07:51;;;;;;;5.15;1.88;;;;;;;;;;4950296;28;20043;-64
2023/09/29 08:10:18;;;;;;;5.40;2.10;;;;;;;;;;4951827;28;20054;-64
2023/09/29 08:12:46;;;;;;;6.80;2.42;;;;;;;;;;4993258;28;20237;-64
2023/09/29 08:15:14;;;;;;;8.27;2.15;;;;;;;;;;4996722;28;20052;-64
2023/09/29 08:17:44;;;;;;;10.75;2.80;;;;;;;;;;4994218;28;20058;-64
2023/09/29 08:20:12;;;;;;;6.22;2.05;;;;;;;;;;4986747;28;20073;-64
2023/09/29 08:22:39;;;;;;;7.18;2.17;;;;;;;;;;4990990;28;20055;-64
2023/09/29 08:25:07;;;;;;;8.13;2.20;;;;;;;;;;4993625;28;20057;-64
2023/09/29 08:27:35;;;;;;;6.13;2.10;;;;;;;;;;4997257;28;20171;-64
2023/09/29 08:30:02;;;;;;;7.82;2.00;;;;;;;;;;4988090;28;20128;-64
2023/09/29 08:32:30;;;;;;;5.90;2.05;;;;;;;;;;4985765;28;20154;-64
2023/09/29 08:34:58;;;;;;;5.15;2.03;;;;;;;;;;4993092;28;20406;-64
2023/09/29 08:37:26;;;;;;;5.90;1.83;;;;;;;;;;4990229;28;20062;-64
2023/09/29 08:39:53;;;;;;;6.93;1.90;;;;;;;;;;4986047;28;20047;-64
2023/09/29 08:42:23;;;;;;;8.00;2.00;;;;;;;;;;4992521;28;20050;-64
2023/09/29 08:44:52;;;;;;;5.22;2.03;;;;;;;;;;4991523;28;20516;-64
2023/09/29 08:47:21;;;;;;;8.43;2.40;;;;;;;;;;4989407;28;20133;-64
2023/09/29 08:49:48;;;;;;;7.30;2.13;;;;;;;;;;4989871;28;20058;-64
2023/09/29 08:52:18;;;;;;;5.47;2.35;;;;;;;;;;4981259;28;20159;-64
2023/09/29 08:54:45;;;;;;;6.30;1.80;;;;;;;;;;4967678;28;20065;-64
2023/09/29 08:57:13;;;;;;;4.97;1.70;;;;;;;;;;4993233;28;20041;-64
2023/09/29 08:59:41;;;;;;;8.30;2.22;;;;;;;;;;5004610;28;20408;-65
2023/09/29 09:02:09;;;;;;;6.45;2.03;;;;;;;;;;4993676;28;20490;-64
2023/09/29 09:04:36;;;;;;;8.70;2.88;;;;;;;;;;4991627;28;20057;-64
2023/09/29 09:07:03;;;;;;;5.45;2.38;;;;;;;;;;5002213;28;20054;-65
2023/09/29 09:09:35;;;;;;;5.90;2.30;;;;;;;;;;4979959;28;20045;-64
2023/09/29 09:12:02;;;;;;;8.02;1.98;;;;;;;;;;5000561;28;20104;-64
2023/09/29 09:14:40;;;;;;;5.93;2.10;;;;;;;;;;4993915;28;20047;-64
2023/09/29 09:17:07;;;;;;;8.25;2.80;;;;;;;;;;4999650;28;20108;-65
2023/09/29 09:19:43;;;;;;;5.57;2.20;;;;;;;;;;4992533;28;20070;-65
2023/09/29 09:22:14;;;;;;;9.75;2.20;;;;;;;;;;4978500;28;20046;-65
2023/09/29 09:24:43;;;;;;;5.20;2.03;;;;;;;;;;4998232;28;20050;-64
2023/09/29 09:27:10;;;;;;;7.78;2.17;;;;;;;;;;5000383;28;20046;-65
2023/09/29 09:29:42;;;;;;;7.90;2.20;;;;;;;;;;4986695;28;20122;-65
2023/09/29 09:32:10;;;;;;;5.03;2.33;;;;;;;;;;4997591;28;20213;-65
2023/09/29 09:34:38;;;;;;;6.32;2.47;;;;;;;;;;4999471;28;20489;-65
2023/09/29 09:37:06;;;;;;;7.47;2.20;;;;;;;;;;4991145;28;20412;-65
2023/09/29 09:39:34;;;;;;;9.27;2.45;;;;;;;;;;4992643;28;20503;-64
2023/09/29 09:42:05;;;;;;;6.35;2.38;;;;;;;;;;4978946;28;20441;-65
2023/09/29 09:44:34;;;;;;;8.32;2.42;;;;;;;;;;4988687;28;20109;-64
2023/09/29 09:47:03;;;;;;;6.45;2.22;;;;;;;;;;4990742;28;20100;-65
2023/09/29 09:49:36;;;;;;;4.97;2.20;;;;;;;;;;4994818;28;20050;-64
2023/09/29 09:52:06;;;;;;;8.60;2.28;;;;;;;;;;4990505;28;20045;-65
2023/09/29 09:54:36;;;;;;;7.60;2.17;;;;;;;;;;4995094;28;20125;-65
2023/09/29 09:57:08;;;;;;;5.03;2.22;;;;;;;;;;4994091;28;20124;-65
2023/09/29 09:59:36;;;;;;;7.43;2.15;;;;;;;;;;4994263;28;20117;-65
2023/09/29 10:02:06;;;;;;;8.10;2.17;;;;;;;;;;4991249;28;20046;-65
2023/09/29 10:04:34;;;;;;;5.32;2.13;;;;;;;;;;4991191;28;20568;-65
2023/09/29 10:07:02;;;;;;;6.35;2.53;;;;;;;;;;4995337;28;20046;-65
2023/09/29 10:09:41;;;;;;;8.20;2.58;;;;;;;;;;4992382;28;20168;-65
2023/09/29 10:12:10;;;;;;;5.80;3.00;;;;;;;;;;4988103;28;20058;-73
2023/09/29 10:14:44;;;;;;;6.75;2.25;;;;;;;;;;4966540;28;20054;-72
2023/09/29 10:17:13;;;;;;;8.68;2.60;;;;;;;;;;4973579;28;20050;-72
2023/09/29 10:19:40;;;;;;;7.75;2.42;;;;;;;;;;4977140;28;20601;-72
2023/09/29 10:22:08;;;;;;;8.27;2.70;;;;;;;;;;4973916;28;20517;-72
2023/09/29 10:24:35;;;;;;;6.97;2.25;;;;;;;;;;4990342;28;20145;-66
2023/09/29 10:27:05;;;;;;;8.50;2.22;;;;;;;;;;4981853;28;20054;-71
2023/09/29 10:29:35;;;;;;;9.00;2.90;;;;;;;;;;4981020;28;20053;-70
2023/09/29 10:32:13;;;;;;;5.30;2.10;;;;;;;;;;4971420;28;20065;-70
2023/09/29 10:34:41;;;;;;;9.85;2.53;;;;;;;;;;4967751;28;20078;-70
2023/09/29 10:37:09;;;;;;;6.00;2.35;;;;;;;;;;4967729;28;20409;-70
2023/09/29 10:39:37;;;;;;;10.05;2.28;;;;;;;;;;4989566;28;20077;-70
2023/09/29 10:42:12;;;;;;;8.27;2.42;;;;;;;;;;4989992;28;20049;-70
2023/09/29 10:44:45;;;;;;;6.13;2.17;;;;;;;;;;4989077;28;20050;-70
2023/09/29 10:47:13;;;;;;;8.05;2.40;;;;;;;;;;4985730;28;20487;-70
2023/09/29 10:49:45;;;;;;;4.75;1.23;;;;;;;;;;4987683;28;20046;-70
2023/09/29 10:52:18;;;;;;;1.98;0.70;;;;;;;;;;4964932;28;20145;-70
2023/09/29 10:54:45;;;;;;;2.85;0.73;;;;;;;;;;4991045;28;20054;-70
2023/09/29 10:57:12;;;;;;;2.97;0.80;;;;;;;;;;4978445;28;20520;-70
2023/09/29 10:59:48;;;;;;;2.53;0.98;;;;;;;;;;4995992;28;20120;-70
2023/09/29 11:02:17;;;;;;;8.48;0.85;;;;;;;;;;5000302;28;20072;-69
2023/09/29 11:04:46;;;;;;;3.75;1.10;;;;;;;;;;4974758;28;20055;-69
2023/09/29 11:07:15;;;;;;;2.13;0.85;;;;;;;;;;4975927;28;20092;-69
2023/09/29 11:09:42;;;;;;;2.63;0.93;;;;;;;;;;4976550;28;20042;-69
2023/09/29 11:12:18;;;;;;;2.55;0.88;;;;;;;;;;4996331;28;20053;-69
2023/09/29 11:14:45;;;;;;;4.32;1.02;;;;;;;;;;4998575;28;20546;-69
2023/09/29 11:17:14;;;;;;;5.13;1.02;;;;;;;;;;5000112;28;20093;-69
2023/09/29 11:19:52;;;;;;;3.67;1.30;;;;;;;;;;4997705;28;20060;-69
2023/09/29 11:22:20;;;;;;;4.05;1.08;;;;;;;;;;4999972;28;20045;-69
2023/09/29 11:24:50;;;;;;;3.38;0.80;;;;;;;;;;4996384;28;20578;-69
2023/09/29 11:27:20;;;;;;;5.78;1.05;;;;;;;;;;5003106;28;20133;-69
2023/09/29 11:29:48;;;;;;;6.80;1.27;;;;;;;;;;4993503;28;20425;-69
2023/09/29 11:32:18;;;;;;;1.80;0.88;;;;;;;;;;4972226;28;21250;-68
2023/09/29 11:34:46;;;;;;;10.05;1.00;;;;;;;;;;4993469;28;20097;-68
2023/09/29 11:37:13;;;;;;;6.00;1.20;;;;;;;;;;4973474;28;20081;-69
2023/09/29 11:39:40;;;;;;;3.95;1.00;;;;;;;;;;4996840;28;20486;-69
2023/09/29 11:42:08;;;;;;;5.22;1.00;;;;;;;;;;4979444;28;20058;-70
2023/09/29 11:44:36;;;;;;;5.38;0.80;;;;;;;;;;4994985;28;20071;-70
2023/09/29 11:47:03;;;;;;;2.80;0.80;;;;;;;;;;4979423;28;20066;-69
2023/09/29 11:49:31;;;;;;;4.35;0.65;;;;;;;;;;4985881;28;20043;-69
2023/09/29 11:51:59;;;;;;;3.13;0.70;;;;;;;;;;4998087;28;20042;-69
2023/09/29 11:54:26;;;;;;;3.85;0.57;;;;;;;;;;4995436;28;20041;-69
2023/09/29 11:56:53;;;;;;;3.75;0.60;;;;;;;;;;4993296;28;20069;-69
2023/09/29 11:59:21;;;;;;;5.57;0.60;;;;;;;;;;5002546;28;20540;-70
2023/09/29 12:01:48;;;;;;;3.92;0.52;;;;;;;;;;4989532;28;20062;-69
2023/09/29 12:04:15;;;;;;;4.60;0.65;;;;;;;;;;5002632;28;20050;-69
2023/09/29 12:06:44;;;;;;;3.35;0.50;;;;;;;;;;4993694;28;20046;-69
2023/09/29 12:09:11;;;;;;;3.60;0.68;;;;;;;;;;4997163;28;20050;-70
2023/09/29 12:11:39;;;;;;;6.53;0.60;;;;;;;;;;4993405;28;20600;-69
2023/09/29 12:14:08;;;;;;;3.25;0.90;;;;;;;;;;4967964;28;20066;-69
2023/09/29 12:16:35;;;;;;;2.28;0.70;;;;;;;;;;4995112;28;20129;-69
2023/09/29 12:19:02;;;;;;;6.07;0.60;;;;;;;;;;4998216;28;20054;-70
2023/09/29 12:21:30;;;;;;;4.13;0.60;;;;;;;;;;4994465;28;20505;-69
2023/09/29 12:23:59;;;;;;;5.85;0.55;;;;;;;;;;4997876;28;20051;-70
2023/09/29 12:26:26;;;;;;;8.63;0.70;;;;;;;;;;4994602;28;20057;-68
2023/09/29 12:28:53;;;;;;;7.25;0.98;;;;;;;;;;4988332;28;20056;-69
2023/09/29 12:31:21;;;;;;;4.97;0.80;;;;;;;;;;4996814;28;20129;-69
2023/09/29 12:33:48;;;;;;;7.15;0.90;;;;;;;;;;4993139;28;20050;-69
2023/09/29 12:36:15;;;;;;;6.90;0.95;;;;;;;;;;4992843;28;20050;-69
2023/09/29 12:38:43;;;;;;;5.97;1.08;;;;;;;;;;5000837;28;20049;-68
2023/09/29 12:41:12;;;;;;;6.68;1.10;;;;;;;;;;4998817;28;20390;-68
2023/09/29 12:43:39;;;;;;;6.82;1.23;;;;;;;;;;4976175;28;20418;-68
2023/09/29 12:46:06;;;;;;;7.70;1.27;;;;;;;;;;4996194;28;20057;-69
2023/09/29 12:48:34;;;;;;;5.65;1.02;;;;;;;;;;4987769;28;20064;-69
2023/09/29 12:51:01;;;;;;;3.38;1.00;;;;;;;;;;4988763;28;20528;-68
2023/09/29 12:53:28;;;;;;;6.30;1.17;;;;;;;;;;4980007;28;20047;-68
2023/09/29 12:55:56;;;;;;;3.33;0.80;;;;;;;;;;4985512;28;20056;-68
2023/09/29 12:58:24;;;;;;;4.70;0.95;;;;;;;;;;4992461;28;20470;-68
2023/09/29 13:00:52;;;;;;;5.78;1.00;;;;;;;;;;4992848;28;20058;-68
2023/09/29 13:03:19;;;;;;;5.85;1.10;;;;;;;;;;4999772;28;20515;-69
2023/09/29 13:05:47;;;;;;;5.55;1.20;;;;;;;;;;4989147;28;20054;-68
2023/09/29 13:08:14;;;;;;;6.85;1.05;;;;;;;;;;4972672;28;20054;-69
2023/09/29 13:10:41;;;;;;;3.20;0.90;;;;;;;;;;4991941;28;20442;-69
2023/09/29 13:13:08;;;;;;;5.03;0.90;;;;;;;;;;4998300;28;20056;-69
2023/09/29 13:15:37;;;;;;;4.32;1.20;;;;;;;;;;4985563;28;20682;-68
2023/09/29 13:18:05;;;;;;;4.10;0.80;;;;;;;;;;4990091;28;20049;-69
2023/09/29 13:20:32;;;;;;;5.80;1.38;;;;;;;;;;4975017;28;20117;-70
2023/09/29 13:23:00;;;;;;;6.07;1.20;;;;;;;;;;4990756;28;20052;-69
2023/09/29 13:25:28;;;;;;;6.72;1.20;;;;;;;;;;4994570;28;20501;-69
2023/09/29 13:27:56;;;;;;;4.78;1.27;;;;;;;;;;4990901;28;20054;-69
2023/09/29 13:30:24;;;;;;;5.18;1.42;;;;;;;;;;4995666;28;20470;-69
2023/09/29 13:32:52;;;;;;;6.63;1.77;;;;;;;;;;4991136;28;20068;-69
2023/09/29 13:35:19;;;;;;;5.97;1.65;;;;;;;;;;4993127;28;20555;-70
2023/09/29 13:37:47;;;;;;;9.52;2.60;;;;;;;;;;4999296;28;20046;-69
2023/09/29 13:40:15;;;;;;;11.85;2.00;;;;;;;;;;4992810;28;20082;-69
2023/09/29 13:42:44;;;;;;;7.07;1.60;;;;;;;;;;4990737;28;20042;-69
2023/09/29 13:45:12;;;;;;;8.60;2.10;;;;;;;;;;4990082;28;20046;-70
2023/09/29 13:47:39;;;;;;;14.02;2.03;;;;;;;;;;4974541;28;20058;-69
2023/09/29 13:50:11;;;;;;;9.52;1.85;;;;;;;;;;4996458;28;20047;-70
2023/09/29 13:52:40;;;;;;;6.88;1.67;;;;;;;;;;4993278;28;20046;-70
2023/09/29 13:55:08;;;;;;;7.38;1.75;;;;;;;;;;4991666;28;20486;-69
2023/09/29 13:57:35;;;;;;;8.77;1.45;;;;;;;;;;4996099;28;20046;-69
2023/09/29 14:00:03;;;;;;;9.77;1.80;;;;;;;;;;4993728;28;20046;-69
2023/09/29 14:02:30;;;;;;;6.75;1.77;;;;;;;;;;4991032;28;20042;-69
2023/09/29 14:04:57;;;;;;;8.20;1.95;;;;;;;;;;4989410;28;20046;-69
2023/09/29 14:07:26;;;;;;;4.47;1.95;;;;;;;;;;5003318;28;20053;-70
2023/09/29 14:09:54;;;;;;;7.70;1.50;;;;;;;;;;4976966;28;20047;-69
2023/09/29 14:12:21;;;;;;;4.97;1.48;;;;;;;;;;4992591;28;20054;-69
2023/09/29 14:14:48;;;;;;;6.80;1.80;;;;;;;;;;4976446;28;20058;-69
2023/09/29 14:17:15;;;;;;;8.13;1.63;;;;;;;;;;4976713;28;20050;-70
2023/09/29 14:19:43;;;;;;;5.10;1.48;;;;;;;;;;4992276;28;20042;-70
2023/09/29 14:22:10;;;;;;;7.25;1.70;;;;;;;;;;5002492;28;20050;-69
2023/09/29 14:24:40;;;;;;;5.82;1.50;;;;;;;;;;4996827;28;20050;-69
2023/09/29 14:27:09;;;;;;;6.43;2.00;;;;;;;;;;4999434;28;20399;-70
2023/09/29 14:29:36;;;;;;;5.50;1.77;;;;;;;;;;4997433;28;20061;-70
2023/09/29 14:32:03;;;;;;;7.43;2.08;;;;;;;;;;4983313;28;20050;-69
2023/09/29 14:34:31;;;;;;;9.50;2.20;;;;;;;;;;5001791;28;20046;-69
2023/09/29 14:36:58;;;;;;;13.15;2.67;;;;;;;;;;5006420;28;20049;-69
2023/09/29 14:39:26;;;;;;;10.13;2.67;;;;;;;;;;4991360;28;20050;-69
2023/09/29 14:41:55;;;;;;;10.18;2.63;;;;;;;;;;4996012;28;20046;-69
2023/09/29 14:44:22;;;;;;;13.25;3.28;;;;;;;;;;4999623;28;20077;-69